sensor_id;sensor_type;location;lat;lon;timestamp;P1;durP1;ratioP1;P2;durP2;ratioP2
1336;SDS011;662;48.814;9.318;2023-05-10T00:01:56;2.90;;;2.40;;
1336;SDS011;662;48.814;9.318;2023-05-10T00:04:23;5.57;;;3.70;;
1336;SDS011;662;48.814;9.318;2023-05-10T00:06:52;3.10;;;2.70;;
1336;SDS011;662;48.814;9.318;2023-05-10T00:09:18;2.57;;;2.33;;
1336;SDS011;662;48.814;9.318;2023-05-10T00:11:44;2.10;;;1.87;;
1336;SDS011;662;48.814;9.318;2023-05-10T00:14:10;2.77;;;1.70;;
1336;SDS011;662;48.814;9.318;2023-05-10T00:16:36;2.10;;;1.60;;
1336;SDS011;662;48.814;9.318;2023-05-10T00:19:01;2.00;;;1.27;;
1336;SDS011;662;48.814;9.318;2023-05-10T00:21:27;1.40;;;1.10;;
1336;SDS011;662;48.814;9.318;2023-05-10T00:23:53;1.03;;;0.93;;
1336;SDS011;662;48.814;9.318;2023-05-10T00:26:19;2.50;;;0.90;;
1336;SDS011;662;48.814;9.318;2023-05-10T00:28:45;0.93;;;0.93;;
1336;SDS011;662;48.814;9.318;2023-05-10T00:31:10;2.50;;;0.80;;
1336;SDS011;662;48.814;9.318;2023-05-10T00:33:36;0.97;;;0.90;;
1336;SDS011;662;48.814;9.318;2023-05-10T00:36:02;1.37;;;0.80;;
1336;SDS011;662;48.814;9.318;2023-05-10T00:38:28;0.77;;;0.77;;
1336;SDS011;662;48.814;9.318;2023-05-10T00:40:53;1.90;;;0.80;;
1336;SDS011;662;48.814;9.318;2023-05-10T00:43:19;1.30;;;0.70;;
1336;SDS011;662;48.814;9.318;2023-05-10T00:45:45;0.60;;;0.60;;
1336;SDS011;662;48.814;9.318;2023-05-10T00:48:11;2.67;;;0.80;;
1336;SDS011;662;48.814;9.318;2023-05-10T00:50:39;5.13;;;1.00;;
1336;SDS011;662;48.814;9.318;2023-05-10T00:53:05;1.00;;;0.63;;
1336;SDS011;662;48.814;9.318;2023-05-10T00:55:31;1.77;;;0.80;;
1336;SDS011;662;48.814;9.318;2023-05-10T00:57:57;1.33;;;0.60;;
1336;SDS011;662;48.814;9.318;2023-05-10T01:00:22;0.60;;;0.60;;
1336;SDS011;662;48.814;9.318;2023-05-10T01:02:48;1.60;;;0.60;;
1336;SDS011;662;48.814;9.318;2023-05-10T01:05:14;3.23;;;0.50;;
1336;SDS011;662;48.814;9.318;2023-05-10T01:07:40;0.83;;;0.50;;
1336;SDS011;662;48.814;9.318;2023-05-10T01:10:06;1.73;;;0.60;;
1336;SDS011;662;48.814;9.318;2023-05-10T01:12:33;0.80;;;0.60;;
1336;SDS011;662;48.814;9.318;2023-05-10T01:15:05;0.70;;;0.70;;
1336;SDS011;662;48.814;9.318;2023-05-10T01:17:33;0.60;;;0.60;;
1336;SDS011;662;48.814;9.318;2023-05-10T01:20:00;2.40;;;0.70;;
1336;SDS011;662;48.814;9.318;2023-05-10T01:28:39;0.80;;;0.80;;
1336;SDS011;662;48.814;9.318;2023-05-10T01:34:16;1.27;;;0.80;;
1336;SDS011;662;48.814;9.318;2023-05-10T01:36:55;0.90;;;0.70;;
1336;SDS011;662;48.814;9.318;2023-05-10T01:42:09;1.37;;;0.60;;
1336;SDS011;662;48.814;9.318;2023-05-10T01:47:28;2.00;;;0.73;;
1336;SDS011;662;48.814;9.318;2023-05-10T01:49:59;0.87;;;0.83;;
1336;SDS011;662;48.814;9.318;2023-05-10T01:52:33;1.60;;;1.00;;
1336;SDS011;662;48.814;9.318;2023-05-10T01:55:02;0.80;;;0.80;;
1336;SDS011;662;48.814;9.318;2023-05-10T01:57:35;0.93;;;0.90;;
1336;SDS011;662;48.814;9.318;2023-05-10T02:00:04;0.80;;;0.80;;
1336;SDS011;662;48.814;9.318;2023-05-10T02:02:33;0.87;;;0.87;;
1336;SDS011;662;48.814;9.318;2023-05-10T02:05:02;1.03;;;0.93;;
1336;SDS011;662;48.814;9.318;2023-05-10T02:07:30;1.00;;;0.90;;
1336;SDS011;662;48.814;9.318;2023-05-10T02:09:58;1.27;;;1.17;;
1336;SDS011;662;48.814;9.318;2023-05-10T02:12:25;0.90;;;0.90;;
1336;SDS011;662;48.814;9.318;2023-05-10T02:14:52;0.90;;;0.90;;
1336;SDS011;662;48.814;9.318;2023-05-10T02:17:20;0.80;;;0.80;;
1336;SDS011;662;48.814;9.318;2023-05-10T02:19:46;1.33;;;1.23;;
1336;SDS011;662;48.814;9.318;2023-05-10T02:22:13;0.90;;;0.90;;
1336;SDS011;662;48.814;9.318;2023-05-10T02:24:41;2.83;;;1.10;;
1336;SDS011;662;48.814;9.318;2023-05-10T02:27:08;1.60;;;1.00;;
1336;SDS011;662;48.814;9.318;2023-05-10T02:29:36;1.10;;;1.10;;
1336;SDS011;662;48.814;9.318;2023-05-10T02:32:02;1.90;;;1.27;;
1336;SDS011;662;48.814;9.318;2023-05-10T02:34:29;1.83;;;1.00;;
1336;SDS011;662;48.814;9.318;2023-05-10T02:36:56;1.00;;;1.00;;
1336;SDS011;662;48.814;9.318;2023-05-10T02:39:23;0.90;;;0.90;;
1336;SDS011;662;48.814;9.318;2023-05-10T02:41:53;0.80;;;0.80;;
1336;SDS011;662;48.814;9.318;2023-05-10T02:44:20;1.90;;;1.33;;
1336;SDS011;662;48.814;9.318;2023-05-10T02:46:48;1.00;;;0.90;;
1336;SDS011;662;48.814;9.318;2023-05-10T02:49:14;1.93;;;1.00;;
1336;SDS011;662;48.814;9.318;2023-05-10T02:51:42;3.03;;;1.50;;
1336;SDS011;662;48.814;9.318;2023-05-10T02:54:18;0.90;;;0.90;;
1336;SDS011;662;48.814;9.318;2023-05-10T02:56:47;1.00;;;1.00;;
1336;SDS011;662;48.814;9.318;2023-05-10T02:59:16;2.10;;;1.00;;
1336;SDS011;662;48.814;9.318;2023-05-10T03:01:42;1.30;;;1.20;;
1336;SDS011;662;48.814;9.318;2023-05-10T03:04:07;1.53;;;1.43;;
1336;SDS011;662;48.814;9.318;2023-05-10T03:06:33;2.13;;;1.50;;
1336;SDS011;662;48.814;9.318;2023-05-10T03:08:59;2.10;;;1.90;;
1336;SDS011;662;48.814;9.318;2023-05-10T03:11:39;1.73;;;1.43;;
1336;SDS011;662;48.814;9.318;2023-05-10T03:14:21;1.60;;;1.50;;
1336;SDS011;662;48.814;9.318;2023-05-10T03:19:50;1.50;;;1.27;;
1336;SDS011;662;48.814;9.318;2023-05-10T03:22:21;3.03;;;1.10;;
1336;SDS011;662;48.814;9.318;2023-05-10T03:24:56;3.60;;;1.70;;
1336;SDS011;662;48.814;9.318;2023-05-10T03:27:23;1.50;;;1.40;;
1336;SDS011;662;48.814;9.318;2023-05-10T03:29:50;1.27;;;1.10;;
1336;SDS011;662;48.814;9.318;2023-05-10T03:32:17;1.17;;;1.07;;
1336;SDS011;662;48.814;9.318;2023-05-10T03:34:43;2.30;;;1.10;;
1336;SDS011;662;48.814;9.318;2023-05-10T03:37:09;1.10;;;1.00;;
1336;SDS011;662;48.814;9.318;2023-05-10T03:39:35;1.47;;;1.30;;
1336;SDS011;662;48.814;9.318;2023-05-10T03:42:00;1.17;;;1.13;;
1336;SDS011;662;48.814;9.318;2023-05-10T03:44:26;1.27;;;1.17;;
1336;SDS011;662;48.814;9.318;2023-05-10T03:46:52;3.27;;;1.03;;
1336;SDS011;662;48.814;9.318;2023-05-10T03:49:17;5.07;;;1.43;;
1336;SDS011;662;48.814;9.318;2023-05-10T03:51:43;1.33;;;1.20;;
1336;SDS011;662;48.814;9.318;2023-05-10T03:54:08;1.20;;;1.10;;
1336;SDS011;662;48.814;9.318;2023-05-10T03:56:34;1.07;;;1.07;;
1336;SDS011;662;48.814;9.318;2023-05-10T03:59:00;1.77;;;1.33;;
1336;SDS011;662;48.814;9.318;2023-05-10T04:01:25;1.20;;;1.10;;
1336;SDS011;662;48.814;9.318;2023-05-10T04:03:51;2.30;;;1.10;;
1336;SDS011;662;48.814;9.318;2023-05-10T04:06:17;1.40;;;1.20;;
1336;SDS011;662;48.814;9.318;2023-05-10T04:08:42;1.47;;;1.37;;
1336;SDS011;662;48.814;9.318;2023-05-10T04:11:08;4.00;;;1.47;;
1336;SDS011;662;48.814;9.318;2023-05-10T04:13:35;2.20;;;2.03;;
1336;SDS011;662;48.814;9.318;2023-05-10T04:16:01;1.70;;;1.60;;
1336;SDS011;662;48.814;9.318;2023-05-10T04:18:27;1.70;;;1.60;;
1336;SDS011;662;48.814;9.318;2023-05-10T04:20:52;2.00;;;1.80;;
1336;SDS011;662;48.814;9.318;2023-05-10T04:23:18;1.87;;;1.77;;
1336;SDS011;662;48.814;9.318;2023-05-10T04:25:44;2.00;;;1.90;;
1336;SDS011;662;48.814;9.318;2023-05-10T04:28:09;1.77;;;1.67;;
1336;SDS011;662;48.814;9.318;2023-05-10T04:30:35;4.87;;;1.90;;
1336;SDS011;662;48.814;9.318;2023-05-10T04:33:01;4.10;;;1.60;;
1336;SDS011;662;48.814;9.318;2023-05-10T04:35:27;1.87;;;1.70;;
1336;SDS011;662;48.814;9.318;2023-05-10T04:37:53;1.50;;;1.40;;
1336;SDS011;662;48.814;9.318;2023-05-10T04:40:19;1.87;;;1.77;;
1336;SDS011;662;48.814;9.318;2023-05-10T04:42:45;3.97;;;1.80;;
1336;SDS011;662;48.814;9.318;2023-05-10T04:45:11;1.50;;;1.40;;
1336;SDS011;662;48.814;9.318;2023-05-10T04:47:37;1.80;;;1.70;;
1336;SDS011;662;48.814;9.318;2023-05-10T04:50:03;1.20;;;1.10;;
1336;SDS011;662;48.814;9.318;2023-05-10T04:52:29;3.40;;;1.57;;
1336;SDS011;662;48.814;9.318;2023-05-10T04:54:55;1.33;;;1.23;;
1336;SDS011;662;48.814;9.318;2023-05-10T04:57:21;1.20;;;1.10;;
1336;SDS011;662;48.814;9.318;2023-05-10T04:59:46;1.30;;;1.20;;
1336;SDS011;662;48.814;9.318;2023-05-10T05:02:12;1.60;;;1.50;;
1336;SDS011;662;48.814;9.318;2023-05-10T05:04:38;1.20;;;1.10;;
1336;SDS011;662;48.814;9.318;2023-05-10T05:07:03;1.73;;;1.60;;
1336;SDS011;662;48.814;9.318;2023-05-10T05:09:29;1.80;;;1.70;;
1336;SDS011;662;48.814;9.318;2023-05-10T05:11:56;1.53;;;1.40;;
1336;SDS011;662;48.814;9.318;2023-05-10T05:14:22;2.00;;;1.47;;
1336;SDS011;662;48.814;9.318;2023-05-10T05:16:50;2.20;;;1.40;;
1336;SDS011;662;48.814;9.318;2023-05-10T05:19:18;2.03;;;1.70;;
1336;SDS011;662;48.814;9.318;2023-05-10T05:21:44;2.00;;;1.90;;
1336;SDS011;662;48.814;9.318;2023-05-10T05:24:10;2.90;;;2.10;;
1336;SDS011;662;48.814;9.318;2023-05-10T05:26:37;2.17;;;1.70;;
1336;SDS011;662;48.814;9.318;2023-05-10T05:29:03;2.53;;;2.17;;
1336;SDS011;662;48.814;9.318;2023-05-10T05:31:29;2.13;;;1.93;;
1336;SDS011;662;48.814;9.318;2023-05-10T05:33:55;2.50;;;1.97;;
1336;SDS011;662;48.814;9.318;2023-05-10T05:36:21;2.60;;;1.87;;
1336;SDS011;662;48.814;9.318;2023-05-10T05:38:46;3.30;;;2.43;;
1336;SDS011;662;48.814;9.318;2023-05-10T05:41:12;2.80;;;2.60;;
1336;SDS011;662;48.814;9.318;2023-05-10T05:43:38;3.53;;;1.70;;
1336;SDS011;662;48.814;9.318;2023-05-10T05:46:04;2.83;;;2.30;;
1336;SDS011;662;48.814;9.318;2023-05-10T05:48:30;3.30;;;2.23;;
1336;SDS011;662;48.814;9.318;2023-05-10T05:50:56;3.63;;;2.37;;
1336;SDS011;662;48.814;9.318;2023-05-10T05:53:22;1.80;;;1.70;;
1336;SDS011;662;48.814;9.318;2023-05-10T05:55:51;3.47;;;1.60;;
1336;SDS011;662;48.814;9.318;2023-05-10T05:58:21;2.67;;;1.80;;
1336;SDS011;662;48.814;9.318;2023-05-10T06:00:47;2.37;;;1.80;;
1336;SDS011;662;48.814;9.318;2023-05-10T06:03:13;2.03;;;1.57;;
1336;SDS011;662;48.814;9.318;2023-05-10T06:05:39;6.60;;;2.17;;
1336;SDS011;662;48.814;9.318;2023-05-10T06:08:10;3.40;;;1.73;;
1336;SDS011;662;48.814;9.318;2023-05-10T06:10:36;2.70;;;2.10;;
1336;SDS011;662;48.814;9.318;2023-05-10T06:13:02;2.30;;;2.03;;
1336;SDS011;662;48.814;9.318;2023-05-10T06:15:27;3.07;;;1.87;;
1336;SDS011;662;48.814;9.318;2023-05-10T06:17:53;7.20;;;1.90;;
1336;SDS011;662;48.814;9.318;2023-05-10T06:20:18;3.27;;;2.03;;
1336;SDS011;662;48.814;9.318;2023-05-10T06:22:44;2.30;;;2.03;;
1336;SDS011;662;48.814;9.318;2023-05-10T06:25:10;2.20;;;1.60;;
1336;SDS011;662;48.814;9.318;2023-05-10T06:27:36;2.40;;;1.27;;
1336;SDS011;662;48.814;9.318;2023-05-10T06:30:02;2.70;;;2.00;;
1336;SDS011;662;48.814;9.318;2023-05-10T06:32:28;2.27;;;1.97;;
1336;SDS011;662;48.814;9.318;2023-05-10T06:34:54;2.27;;;2.03;;
1336;SDS011;662;48.814;9.318;2023-05-10T06:37:20;1.70;;;1.60;;
1336;SDS011;662;48.814;9.318;2023-05-10T06:39:45;2.10;;;1.80;;
1336;SDS011;662;48.814;9.318;2023-05-10T06:42:11;3.53;;;1.67;;
1336;SDS011;662;48.814;9.318;2023-05-10T06:44:36;4.83;;;1.53;;
1336;SDS011;662;48.814;9.318;2023-05-10T06:47:02;2.70;;;1.60;;
1336;SDS011;662;48.814;9.318;2023-05-10T06:49:28;3.30;;;2.33;;
1336;SDS011;662;48.814;9.318;2023-05-10T06:51:55;2.33;;;2.13;;
1336;SDS011;662;48.814;9.318;2023-05-10T06:54:21;2.13;;;2.03;;
1336;SDS011;662;48.814;9.318;2023-05-10T06:56:48;3.07;;;1.67;;
1336;SDS011;662;48.814;9.318;2023-05-10T06:59:13;2.40;;;2.20;;
1336;SDS011;662;48.814;9.318;2023-05-10T07:01:41;2.07;;;1.90;;
1336;SDS011;662;48.814;9.318;2023-05-10T07:04:07;4.23;;;2.30;;
1336;SDS011;662;48.814;9.318;2023-05-10T07:06:33;1.90;;;1.70;;
1336;SDS011;662;48.814;9.318;2023-05-10T07:08:59;1.67;;;1.57;;
1336;SDS011;662;48.814;9.318;2023-05-10T07:11:25;4.30;;;2.03;;
1336;SDS011;662;48.814;9.318;2023-05-10T07:13:51;3.67;;;1.90;;
1336;SDS011;662;48.814;9.318;2023-05-10T07:16:17;2.00;;;1.50;;
1336;SDS011;662;48.814;9.318;2023-05-10T07:18:43;2.47;;;1.50;;
1336;SDS011;662;48.814;9.318;2023-05-10T07:21:08;1.20;;;1.10;;
1336;SDS011;662;48.814;9.318;2023-05-10T07:23:34;2.17;;;1.87;;
1336;SDS011;662;48.814;9.318;2023-05-10T07:26:00;2.23;;;1.47;;
1336;SDS011;662;48.814;9.318;2023-05-10T07:28:27;1.60;;;1.50;;
1336;SDS011;662;48.814;9.318;2023-05-10T07:30:52;3.53;;;1.50;;
1336;SDS011;662;48.814;9.318;2023-05-10T07:33:18;1.63;;;1.53;;
1336;SDS011;662;48.814;9.318;2023-05-10T07:35:44;4.47;;;1.40;;
1336;SDS011;662;48.814;9.318;2023-05-10T07:38:10;1.40;;;1.30;;
1336;SDS011;662;48.814;9.318;2023-05-10T07:40:36;7.77;;;1.40;;
1336;SDS011;662;48.814;9.318;2023-05-10T07:43:03;2.40;;;1.70;;
1336;SDS011;662;48.814;9.318;2023-05-10T07:45:28;2.20;;;1.57;;
1336;SDS011;662;48.814;9.318;2023-05-10T07:47:54;1.53;;;1.43;;
1336;SDS011;662;48.814;9.318;2023-05-10T07:50:20;1.77;;;1.50;;
1336;SDS011;662;48.814;9.318;2023-05-10T07:52:46;1.67;;;1.50;;
1336;SDS011;662;48.814;9.318;2023-05-10T07:55:12;2.47;;;1.70;;
1336;SDS011;662;48.814;9.318;2023-05-10T07:57:38;1.50;;;1.37;;
1336;SDS011;662;48.814;9.318;2023-05-10T08:00:04;1.53;;;1.43;;
1336;SDS011;662;48.814;9.318;2023-05-10T08:02:31;1.50;;;1.40;;
1336;SDS011;662;48.814;9.318;2023-05-10T08:04:57;1.63;;;1.53;;
1336;SDS011;662;48.814;9.318;2023-05-10T08:07:23;1.67;;;1.40;;
1336;SDS011;662;48.814;9.318;2023-05-10T08:09:50;3.63;;;2.07;;
1336;SDS011;662;48.814;9.318;2023-05-10T08:12:15;2.03;;;1.60;;
1336;SDS011;662;48.814;9.318;2023-05-10T08:14:41;3.00;;;1.70;;
1336;SDS011;662;48.814;9.318;2023-05-10T08:17:07;1.43;;;1.30;;
1336;SDS011;662;48.814;9.318;2023-05-10T08:19:33;1.00;;;0.90;;
1336;SDS011;662;48.814;9.318;2023-05-10T08:21:58;1.20;;;1.10;;
1336;SDS011;662;48.814;9.318;2023-05-10T08:24:24;2.40;;;1.20;;
1336;SDS011;662;48.814;9.318;2023-05-10T08:26:50;1.90;;;1.50;;
1336;SDS011;662;48.814;9.318;2023-05-10T08:29:16;1.40;;;1.30;;
1336;SDS011;662;48.814;9.318;2023-05-10T08:31:41;1.50;;;1.27;;
1336;SDS011;662;48.814;9.318;2023-05-10T08:34:07;1.40;;;1.00;;
1336;SDS011;662;48.814;9.318;2023-05-10T08:36:33;2.70;;;1.30;;
1336;SDS011;662;48.814;9.318;2023-05-10T08:38:58;2.03;;;1.10;;
1336;SDS011;662;48.814;9.318;2023-05-10T08:41:25;0.90;;;0.90;;
1336;SDS011;662;48.814;9.318;2023-05-10T08:43:51;2.50;;;1.00;;
1336;SDS011;662;48.814;9.318;2023-05-10T08:46:18;2.73;;;1.30;;
1336;SDS011;662;48.814;9.318;2023-05-10T08:48:45;2.10;;;1.30;;
1336;SDS011;662;48.814;9.318;2023-05-10T08:51:18;2.37;;;1.70;;
1336;SDS011;662;48.814;9.318;2023-05-10T08:53:46;1.77;;;1.10;;
1336;SDS011;662;48.814;9.318;2023-05-10T08:56:13;2.70;;;1.10;;
1336;SDS011;662;48.814;9.318;2023-05-10T08:58:40;0.90;;;0.90;;
1336;SDS011;662;48.814;9.318;2023-05-10T09:01:06;1.93;;;1.30;;
1336;SDS011;662;48.814;9.318;2023-05-10T09:03:33;1.00;;;1.00;;
1336;SDS011;662;48.814;9.318;2023-05-10T09:06:00;2.67;;;1.10;;
1336;SDS011;662;48.814;9.318;2023-05-10T09:08:26;1.27;;;0.97;;
1336;SDS011;662;48.814;9.318;2023-05-10T09:10:52;1.13;;;0.90;;
1336;SDS011;662;48.814;9.318;2023-05-10T09:13:19;1.60;;;1.50;;
1336;SDS011;662;48.814;9.318;2023-05-10T09:15:46;2.20;;;0.97;;
1336;SDS011;662;48.814;9.318;2023-05-10T09:18:13;1.37;;;1.27;;
1336;SDS011;662;48.814;9.318;2023-05-10T09:20:39;1.43;;;0.97;;
1336;SDS011;662;48.814;9.318;2023-05-10T09:23:05;0.80;;;0.70;;
1336;SDS011;662;48.814;9.318;2023-05-10T09:25:31;1.73;;;0.97;;
1336;SDS011;662;48.814;9.318;2023-05-10T09:27:58;1.43;;;0.87;;
1336;SDS011;662;48.814;9.318;2023-05-10T09:30:25;1.67;;;0.60;;
1336;SDS011;662;48.814;9.318;2023-05-10T09:32:52;0.93;;;0.93;;
1336;SDS011;662;48.814;9.318;2023-05-10T09:35:19;1.10;;;0.80;;
1336;SDS011;662;48.814;9.318;2023-05-10T09:37:47;2.60;;;0.90;;
1336;SDS011;662;48.814;9.318;2023-05-10T09:40:14;0.63;;;0.63;;
1336;SDS011;662;48.814;9.318;2023-05-10T09:45:22;2.40;;;1.10;;
1336;SDS011;662;48.814;9.318;2023-05-10T09:47:48;1.13;;;0.80;;
1336;SDS011;662;48.814;9.318;2023-05-10T09:50:14;0.67;;;0.67;;
1336;SDS011;662;48.814;9.318;2023-05-10T09:58:02;0.73;;;0.73;;
1336;SDS011;662;48.814;9.318;2023-05-10T10:00:33;1.30;;;1.20;;
1336;SDS011;662;48.814;9.318;2023-05-10T10:03:01;0.67;;;0.67;;
1336;SDS011;662;48.814;9.318;2023-05-10T10:05:28;1.03;;;0.80;;
1336;SDS011;662;48.814;9.318;2023-05-10T10:07:58;1.20;;;1.10;;
1336;SDS011;662;48.814;9.318;2023-05-10T10:10:25;1.63;;;0.90;;
1336;SDS011;662;48.814;9.318;2023-05-10T10:12:53;1.13;;;0.70;;
1336;SDS011;662;48.814;9.318;2023-05-10T10:15:20;5.00;;;1.07;;
1336;SDS011;662;48.814;9.318;2023-05-10T10:17:46;0.70;;;0.70;;
1336;SDS011;662;48.814;9.318;2023-05-10T10:20:14;1.93;;;1.30;;
1336;SDS011;662;48.814;9.318;2023-05-10T10:22:40;1.57;;;1.10;;
1336;SDS011;662;48.814;9.318;2023-05-10T10:25:05;3.30;;;1.07;;
1336;SDS011;662;48.814;9.318;2023-05-10T10:30:30;5.97;;;0.90;;
1336;SDS011;662;48.814;9.318;2023-05-10T10:36:14;2.73;;;0.80;;
1336;SDS011;662;48.814;9.318;2023-05-10T10:47:33;0.70;;;0.60;;
1336;SDS011;662;48.814;9.318;2023-05-10T10:52:33;0.97;;;0.90;;
1336;SDS011;662;48.814;9.318;2023-05-10T10:55:33;2.50;;;1.10;;
1336;SDS011;662;48.814;9.318;2023-05-10T10:57:57;0.90;;;0.83;;
1336;SDS011;662;48.814;9.318;2023-05-10T11:03:06;1.87;;;1.00;;
1336;SDS011;662;48.814;9.318;2023-05-10T11:10:49;0.60;;;0.60;;
1336;SDS011;662;48.814;9.318;2023-05-10T11:13:17;0.97;;;0.60;;
1336;SDS011;662;48.814;9.318;2023-05-10T11:15:56;1.73;;;1.00;;
1336;SDS011;662;48.814;9.318;2023-05-10T11:18:25;2.43;;;1.20;;
1336;SDS011;662;48.814;9.318;2023-05-10T11:20:52;1.67;;;1.10;;
1336;SDS011;662;48.814;9.318;2023-05-10T11:26:07;0.80;;;0.80;;
1336;SDS011;662;48.814;9.318;2023-05-10T11:28:42;1.00;;;0.70;;
1336;SDS011;662;48.814;9.318;2023-05-10T11:31:08;0.60;;;0.60;;
1336;SDS011;662;48.814;9.318;2023-05-10T11:33:42;0.80;;;0.70;;
1336;SDS011;662;48.814;9.318;2023-05-10T11:36:13;1.40;;;0.90;;
1336;SDS011;662;48.814;9.318;2023-05-10T11:38:40;1.73;;;0.90;;
1336;SDS011;662;48.814;9.318;2023-05-10T11:41:07;1.00;;;0.70;;
1336;SDS011;662;48.814;9.318;2023-05-10T11:43:35;1.00;;;0.90;;
1336;SDS011;662;48.814;9.318;2023-05-10T11:46:03;1.87;;;0.90;;
1336;SDS011;662;48.814;9.318;2023-05-10T11:48:32;2.13;;;1.00;;
1336;SDS011;662;48.814;9.318;2023-05-10T11:50:58;1.63;;;0.80;;
1336;SDS011;662;48.814;9.318;2023-05-10T11:53:26;1.00;;;0.90;;
1336;SDS011;662;48.814;9.318;2023-05-10T11:55:52;1.77;;;1.20;;
1336;SDS011;662;48.814;9.318;2023-05-10T11:58:18;0.90;;;0.80;;
1336;SDS011;662;48.814;9.318;2023-05-10T12:00:43;2.03;;;0.73;;
1336;SDS011;662;48.814;9.318;2023-05-10T12:03:10;1.50;;;0.70;;
1336;SDS011;662;48.814;9.318;2023-05-10T12:05:36;4.00;;;1.10;;
1336;SDS011;662;48.814;9.318;2023-05-10T12:08:12;1.10;;;0.80;;
1336;SDS011;662;48.814;9.318;2023-05-10T12:10:39;3.70;;;0.70;;
1336;SDS011;662;48.814;9.318;2023-05-10T12:13:04;0.83;;;0.83;;
1336;SDS011;662;48.814;9.318;2023-05-10T12:15:30;1.60;;;1.10;;
1336;SDS011;662;48.814;9.318;2023-05-10T12:17:56;1.47;;;1.03;;
1336;SDS011;662;48.814;9.318;2023-05-10T12:20:22;1.47;;;1.13;;
1336;SDS011;662;48.814;9.318;2023-05-10T12:22:53;3.57;;;1.13;;
1336;SDS011;662;48.814;9.318;2023-05-10T12:25:21;3.17;;;1.20;;
1336;SDS011;662;48.814;9.318;2023-05-10T12:27:48;3.30;;;1.73;;
1336;SDS011;662;48.814;9.318;2023-05-10T12:32:47;1.50;;;1.20;;
1336;SDS011;662;48.814;9.318;2023-05-10T12:35:13;1.30;;;1.20;;
1336;SDS011;662;48.814;9.318;2023-05-10T12:37:39;1.20;;;1.00;;
1336;SDS011;662;48.814;9.318;2023-05-10T12:40:05;2.27;;;1.37;;
1336;SDS011;662;48.814;9.318;2023-05-10T12:42:33;3.10;;;1.17;;
1336;SDS011;662;48.814;9.318;2023-05-10T12:45:00;4.30;;;1.10;;
1336;SDS011;662;48.814;9.318;2023-05-10T12:47:27;1.20;;;1.00;;
1336;SDS011;662;48.814;9.318;2023-05-10T12:49:53;3.03;;;1.60;;
1336;SDS011;662;48.814;9.318;2023-05-10T12:52:18;2.03;;;1.13;;
1336;SDS011;662;48.814;9.318;2023-05-10T12:54:44;2.07;;;1.40;;
1336;SDS011;662;48.814;9.318;2023-05-10T12:57:10;1.50;;;1.40;;
1336;SDS011;662;48.814;9.318;2023-05-10T12:59:36;3.63;;;0.97;;
1336;SDS011;662;48.814;9.318;2023-05-10T13:02:02;3.30;;;1.10;;
1336;SDS011;662;48.814;9.318;2023-05-10T13:04:27;1.87;;;1.00;;
1336;SDS011;662;48.814;9.318;2023-05-10T13:06:53;2.10;;;1.17;;
1336;SDS011;662;48.814;9.318;2023-05-10T13:09:21;2.13;;;1.33;;
1336;SDS011;662;48.814;9.318;2023-05-10T13:11:46;1.87;;;0.90;;
1336;SDS011;662;48.814;9.318;2023-05-10T13:14:13;1.47;;;1.17;;
1336;SDS011;662;48.814;9.318;2023-05-10T13:16:39;3.23;;;0.97;;
1336;SDS011;662;48.814;9.318;2023-05-10T13:19:05;0.90;;;0.83;;
1336;SDS011;662;48.814;9.318;2023-05-10T13:21:30;3.87;;;1.50;;
1336;SDS011;662;48.814;9.318;2023-05-10T13:23:56;2.37;;;1.20;;
1336;SDS011;662;48.814;9.318;2023-05-10T13:26:21;1.30;;;1.17;;
1336;SDS011;662;48.814;9.318;2023-05-10T13:28:47;2.47;;;1.30;;
1336;SDS011;662;48.814;9.318;2023-05-10T13:31:13;3.07;;;1.40;;
1336;SDS011;662;48.814;9.318;2023-05-10T13:33:39;1.33;;;1.10;;
1336;SDS011;662;48.814;9.318;2023-05-10T13:36:05;2.50;;;1.30;;
1336;SDS011;662;48.814;9.318;2023-05-10T13:38:31;1.97;;;1.30;;
1336;SDS011;662;48.814;9.318;2023-05-10T13:40:57;1.77;;;1.57;;
1336;SDS011;662;48.814;9.318;2023-05-10T13:43:23;1.40;;;1.23;;
1336;SDS011;662;48.814;9.318;2023-05-10T13:45:49;2.87;;;1.10;;
1336;SDS011;662;48.814;9.318;2023-05-10T13:48:14;2.00;;;1.30;;
1336;SDS011;662;48.814;9.318;2023-05-10T13:50:40;2.30;;;1.27;;
1336;SDS011;662;48.814;9.318;2023-05-10T13:53:06;2.80;;;1.33;;
1336;SDS011;662;48.814;9.318;2023-05-10T13:55:31;3.23;;;1.40;;
1336;SDS011;662;48.814;9.318;2023-05-10T13:57:57;4.70;;;1.50;;
1336;SDS011;662;48.814;9.318;2023-05-10T14:00:23;1.67;;;1.50;;
1336;SDS011;662;48.814;9.318;2023-05-10T14:02:48;1.47;;;1.00;;
1336;SDS011;662;48.814;9.318;2023-05-10T14:05:14;2.47;;;1.10;;
1336;SDS011;662;48.814;9.318;2023-05-10T14:07:39;3.90;;;1.40;;
1336;SDS011;662;48.814;9.318;2023-05-10T14:10:06;0.97;;;0.90;;
1336;SDS011;662;48.814;9.318;2023-05-10T14:12:32;1.20;;;0.90;;
1336;SDS011;662;48.814;9.318;2023-05-10T14:14:57;1.83;;;1.10;;
1336;SDS011;662;48.814;9.318;2023-05-10T14:17:23;1.70;;;1.13;;
1336;SDS011;662;48.814;9.318;2023-05-10T14:19:48;6.63;;;1.87;;
1336;SDS011;662;48.814;9.318;2023-05-10T14:22:14;1.70;;;1.13;;
1336;SDS011;662;48.814;9.318;2023-05-10T14:24:40;0.80;;;0.80;;
1336;SDS011;662;48.814;9.318;2023-05-10T14:27:06;1.40;;;1.10;;
1336;SDS011;662;48.814;9.318;2023-05-10T14:29:31;2.60;;;1.40;;
1336;SDS011;662;48.814;9.318;2023-05-10T14:31:57;1.83;;;1.30;;
1336;SDS011;662;48.814;9.318;2023-05-10T14:34:23;2.37;;;1.17;;
1336;SDS011;662;48.814;9.318;2023-05-10T14:36:49;3.23;;;1.20;;
1336;SDS011;662;48.814;9.318;2023-05-10T14:39:14;2.70;;;0.80;;
1336;SDS011;662;48.814;9.318;2023-05-10T14:41:40;2.20;;;1.00;;
1336;SDS011;662;48.814;9.318;2023-05-10T14:44:07;1.13;;;0.80;;
1336;SDS011;662;48.814;9.318;2023-05-10T14:46:33;1.60;;;1.07;;
1336;SDS011;662;48.814;9.318;2023-05-10T14:48:59;2.57;;;1.07;;
1336;SDS011;662;48.814;9.318;2023-05-10T14:51:25;3.03;;;2.13;;
1336;SDS011;662;48.814;9.318;2023-05-10T14:53:50;1.30;;;1.20;;
1336;SDS011;662;48.814;9.318;2023-05-10T14:56:16;2.50;;;1.10;;
1336;SDS011;662;48.814;9.318;2023-05-10T14:58:41;1.20;;;0.90;;
1336;SDS011;662;48.814;9.318;2023-05-10T15:01:07;2.40;;;0.80;;
1336;SDS011;662;48.814;9.318;2023-05-10T15:03:32;1.80;;;0.70;;
1336;SDS011;662;48.814;9.318;2023-05-10T15:05:58;0.80;;;0.80;;
1336;SDS011;662;48.814;9.318;2023-05-10T15:08:24;1.70;;;0.90;;
1336;SDS011;662;48.814;9.318;2023-05-10T15:10:50;2.60;;;1.00;;
1336;SDS011;662;48.814;9.318;2023-05-10T15:13:16;1.83;;;1.20;;
1336;SDS011;662;48.814;9.318;2023-05-10T15:15:42;1.00;;;0.90;;
1336;SDS011;662;48.814;9.318;2023-05-10T15:18:08;2.30;;;0.80;;
1336;SDS011;662;48.814;9.318;2023-05-10T15:20:34;2.00;;;0.90;;
1336;SDS011;662;48.814;9.318;2023-05-10T15:23:00;1.20;;;1.10;;
1336;SDS011;662;48.814;9.318;2023-05-10T15:25:26;3.20;;;1.17;;
1336;SDS011;662;48.814;9.318;2023-05-10T15:27:52;6.33;;;1.10;;
1336;SDS011;662;48.814;9.318;2023-05-10T15:30:18;1.37;;;0.80;;
1336;SDS011;662;48.814;9.318;2023-05-10T15:32:43;1.37;;;0.97;;
1336;SDS011;662;48.814;9.318;2023-05-10T15:35:09;1.13;;;0.90;;
1336;SDS011;662;48.814;9.318;2023-05-10T15:37:35;2.00;;;1.00;;
1336;SDS011;662;48.814;9.318;2023-05-10T15:40:01;1.97;;;1.10;;
1336;SDS011;662;48.814;9.318;2023-05-10T15:42:29;2.10;;;1.00;;
1336;SDS011;662;48.814;9.318;2023-05-10T15:44:55;1.70;;;1.23;;
1336;SDS011;662;48.814;9.318;2023-05-10T15:47:21;3.00;;;1.10;;
1336;SDS011;662;48.814;9.318;2023-05-10T15:49:47;1.00;;;0.80;;
1336;SDS011;662;48.814;9.318;2023-05-10T15:52:12;1.67;;;1.40;;
1336;SDS011;662;48.814;9.318;2023-05-10T15:54:38;1.93;;;1.10;;
1336;SDS011;662;48.814;9.318;2023-05-10T15:57:04;2.57;;;1.40;;
1336;SDS011;662;48.814;9.318;2023-05-10T15:59:31;1.80;;;0.80;;
1336;SDS011;662;48.814;9.318;2023-05-10T16:01:57;2.00;;;1.23;;
1336;SDS011;662;48.814;9.318;2023-05-10T16:04:23;2.60;;;0.83;;
1336;SDS011;662;48.814;9.318;2023-05-10T16:06:48;1.87;;;0.80;;
1336;SDS011;662;48.814;9.318;2023-05-10T16:09:14;3.20;;;1.10;;
1336;SDS011;662;48.814;9.318;2023-05-10T16:11:41;1.73;;;1.20;;
1336;SDS011;662;48.814;9.318;2023-05-10T16:14:07;1.30;;;1.03;;
1336;SDS011;662;48.814;9.318;2023-05-10T16:16:34;1.00;;;0.90;;
1336;SDS011;662;48.814;9.318;2023-05-10T16:18:59;1.43;;;1.00;;
1336;SDS011;662;48.814;9.318;2023-05-10T16:21:26;1.50;;;0.83;;
1336;SDS011;662;48.814;9.318;2023-05-10T16:23:53;3.50;;;1.00;;